Time;durP1;ratioP1;P1;durP2;ratioP2;P2;SDS_P1;SDS_P2;PMS_P1;PMS_P2;Temp;Humidity;BMP_temperature;BMP_pressure;BME280_temperature;BME280_humidity;BME280_pressure;Samples;Min_cycle;Max_cycle;Signal;HPM_P1;HPM_P2
2022/05/15 00:02:27;;;;;;;23.67;7.90;;;;;;;;;;5073701;28;20426;-70
2022/05/15 00:04:55;;;;;;;22.67;8.00;;;;;;;;;;5073276;28;20514;-70
2022/05/15 00:07:22;;;;;;;18.27;8.40;;;;;;;;;;5073603;28;20522;-70
2022/05/15 00:09:50;;;;;;;20.87;8.40;;;;;;;;;;5073365;28;20443;-70
2022/05/15 00:12:20;;;;;;;20.43;7.87;;;;;;;;;;5073311;28;20458;-70
2022/05/15 00:14:48;;;;;;;20.17;7.00;;;;;;;;;;5073389;28;20828;-70
2022/05/15 00:17:15;;;;;;;19.03;7.90;;;;;;;;;;5072934;28;20442;-70
2022/05/15 00:19:45;;;;;;;22.90;8.83;;;;;;;;;;5073388;28;20445;-70
2022/05/15 00:22:14;;;;;;;22.73;8.97;;;;;;;;;;5073058;28;20949;-70
2022/05/15 00:24:42;;;;;;;19.63;8.10;;;;;;;;;;5072985;28;21018;-70
2022/05/15 00:27:09;;;;;;;23.97;8.10;;;;;;;;;;5073051;28;20443;-70
2022/05/15 00:29:37;;;;;;;21.53;8.70;;;;;;;;;;5072650;28;20438;-70
2022/05/15 00:32:04;;;;;;;19.50;8.40;;;;;;;;;;5073184;28;20434;-70
2022/05/15 00:34:32;;;;;;;18.97;7.87;;;;;;;;;;5073171;28;20812;-70
2022/05/15 00:37:01;;;;;;;18.63;7.50;;;;;;;;;;5072949;28;20488;-70
2022/05/15 00:39:28;;;;;;;19.10;7.53;;;;;;;;;;5072520;28;20840;-70
2022/05/15 00:41:56;;;;;;;21.93;8.53;;;;;;;;;;5072913;28;20449;-70
2022/05/15 00:44:23;;;;;;;18.00;7.30;;;;;;;;;;5072487;28;21047;-70
2022/05/15 00:46:51;;;;;;;20.07;8.43;;;;;;;;;;5073034;28;20439;-70
2022/05/15 00:49:18;;;;;;;20.57;7.87;;;;;;;;;;5072615;28;20450;-71
2022/05/15 00:51:47;;;;;;;18.10;7.27;;;;;;;;;;5072524;28;20529;-70
2022/05/15 00:54:18;;;;;;;19.60;7.33;;;;;;;;;;5072778;28;20451;-70
2022/05/15 00:56:49;;;;;;;19.77;8.00;;;;;;;;;;5072412;28;20454;-70
2022/05/15 00:59:18;;;;;;;19.50;8.00;;;;;;;;;;5072241;28;20435;-70
2022/05/15 01:01:45;;;;;;;21.90;7.87;;;;;;;;;;5072541;28;20818;-70
2022/05/15 01:04:13;;;;;;;20.30;7.53;;;;;;;;;;5072333;28;20971;-70
2022/05/15 01:06:43;;;;;;;22.83;7.30;;;;;;;;;;5072145;28;21040;-70
2022/05/15 01:09:11;;;;;;;23.50;8.30;;;;;;;;;;5072158;28;20439;-70
2022/05/15 01:11:40;;;;;;;22.03;10.60;;;;;;;;;;5071937;28;20439;-70
2022/05/15 01:14:09;;;;;;;20.20;8.90;;;;;;;;;;5072125;28;20435;-70
2022/05/15 01:16:37;;;;;;;23.17;9.00;;;;;;;;;;5072115;28;20439;-70
2022/05/15 01:19:05;;;;;;;19.30;7.90;;;;;;;;;;5072162;28;20451;-70
2022/05/15 01:21:35;;;;;;;20.90;8.10;;;;;;;;;;5071842;28;20527;-70
2022/05/15 01:24:03;;;;;;;20.83;8.37;;;;;;;;;;5072078;28;20446;-70
2022/05/15 01:26:31;;;;;;;21.67;7.90;;;;;;;;;;5071857;28;20485;-70
2022/05/15 01:28:59;;;;;;;23.37;8.80;;;;;;;;;;5071978;28;20504;-70
2022/05/15 01:31:27;;;;;;;19.63;8.17;;;;;;;;;;5071952;28;20452;-70
2022/05/15 01:33:55;;;;;;;19.83;6.70;;;;;;;;;;5071864;28;20439;-70
2022/05/15 01:36:23;;;;;;;22.43;8.50;;;;;;;;;;5071988;28;20465;-70
2022/05/15 01:38:53;;;;;;;22.17;8.30;;;;;;;;;;5072425;28;20450;-70
2022/05/15 01:41:20;;;;;;;24.57;7.67;;;;;;;;;;5071636;28;20446;-70
2022/05/15 01:43:49;;;;;;;19.50;7.67;;;;;;;;;;5072302;28;20577;-70
2022/05/15 01:46:17;;;;;;;19.77;7.53;;;;;;;;;;5071761;28;20482;-70
2022/05/15 01:48:44;;;;;;;18.30;7.80;;;;;;;;;;5071697;28;20941;-70
2022/05/15 01:51:11;;;;;;;18.17;7.80;;;;;;;;;;5071197;28;20439;-70
2022/05/15 01:53:39;;;;;;;17.97;7.13;;;;;;;;;;5071714;28;20447;-70
2022/05/15 01:56:08;;;;;;;18.77;6.63;;;;;;;;;;5071686;28;20807;-70
2022/05/15 01:58:36;;;;;;;19.20;6.90;;;;;;;;;;5071636;28;20960;-70
2022/05/15 02:01:03;;;;;;;20.40;7.53;;;;;;;;;;5071837;28;20442;-70
2022/05/15 02:03:30;;;;;;;18.37;6.80;;;;;;;;;;5071306;28;20445;-70
2022/05/15 02:05:58;;;;;;;18.53;6.23;;;;;;;;;;5071527;28;20475;-70
2022/05/15 02:08:26;;;;;;;18.83;7.10;;;;;;;;;;5072173;28;20446;-70
2022/05/15 02:10:53;;;;;;;17.83;8.00;;;;;;;;;;5071701;28;20443;-70
2022/05/15 02:13:22;;;;;;;16.70;6.27;;;;;;;;;;5071604;28;20443;-70
2022/05/15 02:15:49;;;;;;;19.13;6.70;;;;;;;;;;5071448;28;20850;-70
2022/05/15 02:18:17;;;;;;;18.80;7.73;;;;;;;;;;5072194;28;20447;-70
2022/05/15 02:20:45;;;;;;;17.50;6.93;;;;;;;;;;5071662;28;20481;-70
2022/05/15 02:23:12;;;;;;;20.83;4.87;;;;;;;;;;5071373;28;20963;-70
2022/05/15 02:25:40;;;;;;;19.40;6.40;;;;;;;;;;5071337;28;20859;-70
2022/05/15 02:28:08;;;;;;;17.83;6.70;;;;;;;;;;5071306;28;20473;-70
2022/05/15 02:30:36;;;;;;;15.60;6.40;;;;;;;;;;5071237;28;20450;-70
2022/05/15 02:33:05;;;;;;;16.07;6.20;;;;;;;;;;5071521;28;20443;-70
2022/05/15 02:35:33;;;;;;;15.77;5.97;;;;;;;;;;5071376;28;20475;-70
2022/05/15 02:38:01;;;;;;;16.50;5.60;;;;;;;;;;5071218;28;20471;-70
2022/05/15 02:40:28;;;;;;;15.83;6.33;;;;;;;;;;5071589;28;20447;-70
2022/05/15 02:42:56;;;;;;;18.13;6.37;;;;;;;;;;5071348;28;20435;-70
2022/05/15 02:45:24;;;;;;;16.43;5.60;;;;;;;;;;5070867;28;20516;-70
2022/05/15 02:47:53;;;;;;;16.63;6.07;;;;;;;;;;5071157;28;20439;-70
2022/05/15 02:53:06;;;;;;;17.97;5.43;;;;;;;;;;5071343;28;20422;-70
2022/05/15 02:55:33;;;;;;;15.43;5.00;;;;;;;;;;5070997;28;20948;-70
2022/05/15 02:58:02;;;;;;;15.30;5.87;;;;;;;;;;5071097;28;20449;-70
2022/05/15 03:00:30;;;;;;;19.10;5.53;;;;;;;;;;5071660;28;20443;-70
2022/05/15 03:02:59;;;;;;;17.23;6.00;;;;;;;;;;5071270;28;20433;-70
2022/05/15 03:05:26;;;;;;;16.80;5.27;;;;;;;;;;5074306;28;20850;-70
2022/05/15 03:07:53;;;;;;;15.90;5.90;;;;;;;;;;5074624;28;20457;-70
2022/05/15 03:10:22;;;;;;;17.20;4.60;;;;;;;;;;5074507;28;20448;-70
2022/05/15 03:12:50;;;;;;;15.50;5.27;;;;;;;;;;5074655;28;20439;-70
2022/05/15 03:15:20;;;;;;;17.93;5.57;;;;;;;;;;5074441;28;20492;-70
2022/05/15 03:17:47;;;;;;;15.40;5.90;;;;;;;;;;5074545;28;20447;-70
2022/05/15 03:20:18;;;;;;;16.27;5.53;;;;;;;;;;5074472;28;20810;-70
2022/05/15 03:22:45;;;;;;;17.40;6.03;;;;;;;;;;5074276;28;21305;-70
2022/05/15 03:25:13;;;;;;;14.60;5.30;;;;;;;;;;5074414;28;20438;-70
2022/05/15 03:27:41;;;;;;;19.97;7.50;;;;;;;;;;5074094;28;20455;-70
2022/05/15 03:30:09;;;;;;;16.77;6.13;;;;;;;;;;5074114;28;20443;-70
2022/05/15 03:32:37;;;;;;;15.53;6.07;;;;;;;;;;5074395;28;20439;-70
2022/05/15 03:35:05;;;;;;;18.13;6.67;;;;;;;;;;5073886;28;20528;-70
2022/05/15 03:37:33;;;;;;;19.77;6.50;;;;;;;;;;5073885;28;20462;-70
2022/05/15 03:40:01;;;;;;;17.80;6.20;;;;;;;;;;5073934;28;20449;-70
2022/05/15 03:42:29;;;;;;;17.97;5.90;;;;;;;;;;5074213;28;20439;-70
2022/05/15 03:44:57;;;;;;;16.97;5.97;;;;;;;;;;5073863;28;20442;-70
2022/05/15 03:47:24;;;;;;;16.47;6.03;;;;;;;;;;5073542;28;21034;-70
2022/05/15 03:49:53;;;;;;;16.93;6.17;;;;;;;;;;5073825;28;20431;-70
2022/05/15 03:52:21;;;;;;;19.23;6.80;;;;;;;;;;5073956;28;20442;-70
2022/05/15 03:54:50;;;;;;;16.43;6.73;;;;;;;;;;5073943;28;20435;-70
2022/05/15 03:57:17;;;;;;;16.47;7.00;;;;;;;;;;5073376;28;20446;-71
2022/05/15 03:59:45;;;;;;;18.50;6.27;;;;;;;;;;5073589;28;20442;-70
2022/05/15 04:02:13;;;;;;;17.93;6.53;;;;;;;;;;5073447;28;20888;-70
2022/05/15 04:04:41;;;;;;;16.83;5.63;;;;;;;;;;5074024;28;20482;-70
2022/05/15 04:07:09;;;;;;;19.90;7.20;;;;;;;;;;5073304;28;20475;-70
2022/05/15 04:09:40;;;;;;;15.03;5.57;;;;;;;;;;5073172;28;20481;-70
2022/05/15 04:12:10;;;;;;;16.87;6.43;;;;;;;;;;5073397;28;20442;-70
2022/05/15 04:14:38;;;;;;;19.00;6.43;;;;;;;;;;5072862;28;20446;-71
2022/05/15 04:17:06;;;;;;;17.30;5.10;;;;;;;;;;5073230;28;20502;-70
2022/05/15 04:19:35;;;;;;;15.73;5.40;;;;;;;;;;5072919;28;20435;-70
2022/05/15 04:22:05;;;;;;;23.20;5.80;;;;;;;;;;5073296;28;20446;-70
2022/05/15 04:24:33;;;;;;;16.03;5.93;;;;;;;;;;5073244;28;20493;-70
2022/05/15 04:27:01;;;;;;;15.63;5.80;;;;;;;;;;5072938;28;21101;-70
2022/05/15 04:29:30;;;;;;;15.30;5.60;;;;;;;;;;5072673;28;20442;-70
2022/05/15 04:31:57;;;;;;;17.53;5.03;;;;;;;;;;5073017;28;20961;-71
2022/05/15 04:34:25;;;;;;;16.70;5.20;;;;;;;;;;5073066;28;21036;-71
2022/05/15 04:36:52;;;;;;;18.10;5.97;;;;;;;;;;5073003;28;20483;-70
2022/05/15 04:39:20;;;;;;;20.33;6.03;;;;;;;;;;5072625;28;20478;-70
2022/05/15 04:41:48;;;;;;;16.93;6.43;;;;;;;;;;5072712;28;20458;-70
2022/05/15 04:44:15;;;;;;;18.23;6.50;;;;;;;;;;5073205;28;20952;-71
2022/05/15 04:46:44;;;;;;;17.03;6.13;;;;;;;;;;5072852;28;20505;-71
2022/05/15 04:49:11;;;;;;;16.67;5.60;;;;;;;;;;5072746;28;20438;-71
2022/05/15 04:51:39;;;;;;;18.60;6.90;;;;;;;;;;5072504;28;20529;-71
2022/05/15 04:54:07;;;;;;;16.47;6.50;;;;;;;;;;5072471;28;20433;-70
2022/05/15 04:56:34;;;;;;;18.50;5.67;;;;;;;;;;5072811;28;20837;-70
2022/05/15 04:59:02;;;;;;;16.00;5.40;;;;;;;;;;5072411;28;20457;-70
2022/05/15 05:01:29;;;;;;;17.60;5.60;;;;;;;;;;5072213;28;20439;-71
2022/05/15 05:03:59;;;;;;;15.50;5.67;;;;;;;;;;5072412;28;20445;-70
2022/05/15 05:06:27;;;;;;;16.83;6.37;;;;;;;;;;5072235;28;20482;-70
2022/05/15 05:08:54;;;;;;;16.20;5.40;;;;;;;;;;5072165;28;20458;-70
2022/05/15 05:11:22;;;;;;;22.67;6.00;;;;;;;;;;5072314;28;20464;-70
2022/05/15 05:13:50;;;;;;;16.80;6.10;;;;;;;;;;5071541;28;20427;-71
2022/05/15 05:16:17;;;;;;;18.13;5.60;;;;;;;;;;5072242;28;20447;-70
2022/05/15 05:18:45;;;;;;;15.30;5.50;;;;;;;;;;5072002;28;20443;-70
2022/05/15 05:21:14;;;;;;;17.20;5.90;;;;;;;;;;5071751;28;20488;-70
2022/05/15 05:23:41;;;;;;;15.40;4.83;;;;;;;;;;5071841;28;20446;-71
2022/05/15 05:26:09;;;;;;;15.10;3.67;;;;;;;;;;5071140;28;20443;-74
2022/05/15 05:28:37;;;;;;;13.63;4.30;;;;;;;;;;5072189;28;20509;-70
2022/05/15 05:31:04;;;;;;;15.40;5.43;;;;;;;;;;5082879;28;20450;-69
2022/05/15 05:33:32;;;;;;;19.43;5.33;;;;;;;;;;5094549;28;20472;-69
2022/05/15 05:36:00;;;;;;;14.43;4.80;;;;;;;;;;5100944;28;20463;-68
2022/05/15 05:38:29;;;;;;;18.53;4.50;;;;;;;;;;5094154;28;21011;-69
2022/05/15 05:40:56;;;;;;;15.10;4.63;;;;;;;;;;5095645;28;20448;-69
2022/05/15 05:43:23;;;;;;;16.73;5.10;;;;;;;;;;5085333;28;20447;-69
2022/05/15 05:45:51;;;;;;;21.10;5.47;;;;;;;;;;5093388;28;20983;-67
2022/05/15 05:48:19;;;;;;;18.83;5.20;;;;;;;;;;5091446;28;20513;-68
2022/05/15 05:50:46;;;;;;;15.30;4.77;;;;;;;;;;5091766;28;20452;-67
2022/05/15 05:53:14;;;;;;;17.17;5.80;;;;;;;;;;5081618;28;20447;-69
2022/05/15 05:55:43;;;;;;;20.50;5.80;;;;;;;;;;5084508;28;20973;-67
2022/05/15 05:58:10;;;;;;;22.90;5.60;;;;;;;;;;5090912;28;20456;-68
2022/05/15 06:00:38;;;;;;;15.53;5.40;;;;;;;;;;5091682;28;20442;-69
2022/05/15 06:05:52;;;;;;;19.90;5.33;;;;;;;;;;5091620;28;20846;-69
2022/05/15 06:08:20;;;;;;;15.47;5.30;;;;;;;;;;5091391;28;20487;-69
2022/05/15 06:10:49;;;;;;;15.37;4.50;;;;;;;;;;5091337;28;20454;-70
2022/05/15 06:13:16;;;;;;;16.63;6.17;;;;;;;;;;5090583;28;20895;-72
2022/05/15 06:15:44;;;;;;;17.00;5.43;;;;;;;;;;5097820;28;20451;-68
2022/05/15 06:18:11;;;;;;;16.43;4.50;;;;;;;;;;5091582;28;20459;-69
2022/05/15 06:20:39;;;;;;;14.87;4.40;;;;;;;;;;5084662;28;20979;-68
2022/05/15 06:23:07;;;;;;;16.23;5.73;;;;;;;;;;5091148;28;20454;-68
2022/05/15 06:25:34;;;;;;;17.43;5.17;;;;;;;;;;5090946;28;20947;-69
2022/05/15 06:28:03;;;;;;;15.50;4.20;;;;;;;;;;5090349;28;20504;-70
2022/05/15 06:30:31;;;;;;;18.60;5.23;;;;;;;;;;5091360;28;20456;-69
2022/05/15 06:32:59;;;;;;;16.60;6.00;;;;;;;;;;5091420;28;20450;-69
2022/05/15 06:35:27;;;;;;;14.40;4.83;;;;;;;;;;5091054;28;20454;-70
2022/05/15 06:37:54;;;;;;;16.90;5.70;;;;;;;;;;5092664;28;20474;-69
2022/05/15 06:40:22;;;;;;;16.27;4.90;;;;;;;;;;5095125;28;20449;-70
2022/05/15 06:42:49;;;;;;;16.53;5.70;;;;;;;;;;5094700;28;20907;-70
2022/05/15 06:45:18;;;;;;;16.00;5.73;;;;;;;;;;5099970;28;20459;-69
2022/05/15 06:47:45;;;;;;;20.50;5.60;;;;;;;;;;5094988;28;20586;-69
2022/05/15 06:50:13;;;;;;;15.63;5.10;;;;;;;;;;5094824;28;20484;-69
2022/05/15 06:52:41;;;;;;;17.03;5.77;;;;;;;;;;5094736;28;20816;-69
2022/05/15 06:55:10;;;;;;;15.60;4.93;;;;;;;;;;5094614;28;20448;-70
2022/05/15 06:57:36;;;;;;;16.63;5.17;;;;;;;;;;5094148;28;20458;-70
2022/05/15 07:00:07;;;;;;;15.70;5.17;;;;;;;;;;5094493;28;20580;-71
2022/05/15 07:02:35;;;;;;;17.47;5.40;;;;;;;;;;5094428;28;20450;-69
2022/05/15 07:05:04;;;;;;;24.83;5.67;;;;;;;;;;5094479;28;20962;-70
2022/05/15 07:07:32;;;;;;;18.27;5.00;;;;;;;;;;5094153;28;20489;-69
2022/05/15 07:09:59;;;;;;;14.40;4.77;;;;;;;;;;5087897;28;20496;-69
2022/05/15 07:12:27;;;;;;;16.53;5.60;;;;;;;;;;5094130;28;20447;-70
2022/05/15 07:14:55;;;;;;;16.60;4.90;;;;;;;;;;5097308;28;20462;-70
2022/05/15 07:17:22;;;;;;;15.20;4.83;;;;;;;;;;5094207;28;20461;-71
2022/05/15 07:19:51;;;;;;;15.77;5.07;;;;;;;;;;5094270;28;20458;-70
2022/05/15 07:22:18;;;;;;;17.30;5.30;;;;;;;;;;5087075;28;20464;-70
2022/05/15 07:24:46;;;;;;;20.17;5.10;;;;;;;;;;5085279;28;20467;-70
2022/05/15 07:27:14;;;;;;;16.77;4.90;;;;;;;;;;5081661;28;20483;-73
2022/05/15 07:29:42;;;;;;;17.33;4.87;;;;;;;;;;5094103;28;20806;-72
2022/05/15 07:32:11;;;;;;;16.70;5.10;;;;;;;;;;5094117;28;20457;-72
2022/05/15 07:34:39;;;;;;;14.50;4.23;;;;;;;;;;5093868;28;20457;-71
2022/05/15 07:37:08;;;;;;;14.53;3.90;;;;;;;;;;5094073;28;20508;-71
2022/05/15 07:39:35;;;;;;;18.50;5.83;;;;;;;;;;5093721;28;20449;-73
2022/05/15 07:42:03;;;;;;;20.27;5.00;;;;;;;;;;5093297;28;20455;-73
2022/05/15 07:44:31;;;;;;;17.10;5.00;;;;;;;;;;5094372;28;20449;-73
2022/05/15 07:46:59;;;;;;;20.60;5.10;;;;;;;;;;5093790;28;20492;-73
2022/05/15 07:49:26;;;;;;;16.73;5.37;;;;;;;;;;5092582;28;20454;-73
2022/05/15 07:51:54;;;;;;;17.77;5.40;;;;;;;;;;5093969;28;20479;-73
2022/05/15 07:54:22;;;;;;;20.10;5.33;;;;;;;;;;5093875;28;20462;-74
2022/05/15 07:56:50;;;;;;;17.10;5.70;;;;;;;;;;5093204;28;20443;-74
2022/05/15 07:59:18;;;;;;;22.23;5.20;;;;;;;;;;5093540;28;20453;-73
2022/05/15 08:01:45;;;;;;;22.93;7.30;;;;;;;;;;5093299;28;20950;-74
2022/05/15 08:04:13;;;;;;;19.20;5.40;;;;;;;;;;5093686;28;20481;-74
2022/05/15 08:09:27;;;;;;;18.83;5.60;;;;;;;;;;5093087;28;20486;-74
2022/05/15 08:11:55;;;;;;;23.17;5.33;;;;;;;;;;5092706;28;20459;-74
2022/05/15 08:14:22;;;;;;;43.73;10.47;;;;;;;;;;5096449;28;20458;-74
2022/05/15 08:16:50;;;;;;;19.13;5.67;;;;;;;;;;5095482;28;20457;-74
2022/05/15 08:24:49;;;;;;;18.37;5.37;;;;;;;;;;5086318;28;20459;-74
2022/05/15 08:27:16;;;;;;;17.43;6.00;;;;;;;;;;5092311;28;20554;-74
2022/05/15 08:29:44;;;;;;;16.40;5.27;;;;;;;;;;5092898;28;20448;-74
2022/05/15 08:32:12;;;;;;;16.50;5.50;;;;;;;;;;5093112;28;20456;-74
2022/05/15 08:34:40;;;;;;;18.33;5.97;;;;;;;;;;5092944;28;20464;-74
2022/05/15 08:37:08;;;;;;;17.80;6.43;;;;;;;;;;5092508;28;20537;-74
2022/05/15 08:39:35;;;;;;;19.67;5.80;;;;;;;;;;5092787;28;20450;-74
2022/05/15 08:42:13;;;;;;;39.47;8.43;;;;;;;;;;5092406;28;20458;-74
2022/05/15 08:44:44;;;;;;;16.97;6.50;;;;;;;;;;5097421;28;20449;-74
2022/05/15 08:47:30;;;;;;;17.73;5.47;;;;;;;;;;5092876;28;20466;-74
2022/05/15 08:50:00;;;;;;;17.03;6.33;;;;;;;;;;5092882;28;20946;-74
2022/05/15 08:52:31;;;;;;;19.93;6.93;;;;;;;;;;5092929;28;20453;-74
2022/05/15 08:55:02;;;;;;;21.70;5.93;;;;;;;;;;5092847;28;20831;-73
2022/05/15 08:57:38;;;;;;;17.00;6.00;;;;;;;;;;5091804;28;20456;-73
2022/05/15 09:00:10;;;;;;;16.77;6.17;;;;;;;;;;5092359;28;20516;-74
2022/05/15 09:02:40;;;;;;;17.70;5.43;;;;;;;;;;5092630;28;20451;-74
2022/05/15 09:05:08;;;;;;;25.77;6.00;;;;;;;;;;5092304;28;20449;-74
2022/05/15 09:07:42;;;;;;;16.67;5.83;;;;;;;;;;5091894;28;20488;-74
2022/05/15 09:10:20;;;;;;;16.53;5.50;;;;;;;;;;5092495;28;20435;-73
2022/05/15 09:12:57;;;;;;;16.37;5.60;;;;;;;;;;5091717;28;20442;-74
2022/05/15 09:15:27;;;;;;;16.53;5.63;;;;;;;;;;5095325;28;20449;-73
2022/05/15 09:18:00;;;;;;;16.37;5.60;;;;;;;;;;5092458;28;20507;-73
2022/05/15 09:20:42;;;;;;;18.90;5.87;;;;;;;;;;5092295;28;20446;-73
2022/05/15 09:23:18;;;;;;;16.77;5.67;;;;;;;;;;5092022;28;20934;-74
2022/05/15 09:25:51;;;;;;;17.23;6.37;;;;;;;;;;5091728;28;20822;-73
2022/05/15 09:28:20;;;;;;;18.17;5.10;;;;;;;;;;5091770;28;20501;-73
2022/05/15 09:30:50;;;;;;;18.07;5.80;;;;;;;;;;5091905;28;20458;-73
2022/05/15 09:33:27;;;;;;;18.17;5.40;;;;;;;;;;5091594;28;20455;-74
2022/05/15 09:36:09;;;;;;;15.63;5.30;;;;;;;;;;5091919;28;20457;-73
2022/05/15 09:38:36;;;;;;;18.33;6.23;;;;;;;;;;5092031;28;20484;-74
2022/05/15 09:44:00;;;;;;;16.63;5.73;;;;;;;;;;5091673;28;20450;-73
2022/05/15 09:46:28;;;;;;;18.43;5.40;;;;;;;;;;5092956;28;20454;-73
2022/05/15 09:48:58;;;;;;;18.90;5.00;;;;;;;;;;5091630;28;20493;-74
2022/05/15 09:51:30;;;;;;;19.70;6.30;;;;;;;;;;5091409;28;20453;-73
2022/05/15 09:53:58;;;;;;;21.67;6.27;;;;;;;;;;5091860;28;20451;-74
2022/05/15 09:56:29;;;;;;;19.77;6.07;;;;;;;;;;5090912;28;20454;-73
2022/05/15 09:58:58;;;;;;;20.37;6.47;;;;;;;;;;5091633;28;20438;-74
2022/05/15 10:01:29;;;;;;;20.03;5.73;;;;;;;;;;5091277;28;20448;-74
2022/05/15 10:03:59;;;;;;;18.80;5.50;;;;;;;;;;5091607;28;20804;-74
2022/05/15 10:06:27;;;;;;;19.80;5.77;;;;;;;;;;5091605;28;20799;-74
2022/05/15 10:09:12;;;;;;;17.73;5.13;;;;;;;;;;5091394;28;20487;-74
2022/05/15 10:11:41;;;;;;;18.43;5.63;;;;;;;;;;5090923;28;20446;-74
2022/05/15 10:14:10;;;;;;;19.07;5.90;;;;;;;;;;5095247;28;20452;-74
2022/05/15 10:16:47;;;;;;;23.37;6.30;;;;;;;;;;5095651;28;20456;-74
2022/05/15 10:19:19;;;;;;;19.90;6.40;;;;;;;;;;5095346;28;20503;-73
2022/05/15 10:21:49;;;;;;;20.63;6.93;;;;;;;;;;5095703;28;20444;-73
2022/05/15 10:24:18;;;;;;;20.70;7.50;;;;;;;;;;5095749;28;20457;-73
2022/05/15 10:26:49;;;;;;;16.17;5.93;;;;;;;;;;5094761;28;20457;-73
2022/05/15 10:29:21;;;;;;;18.80;7.27;;;;;;;;;;5094987;28;20485;-73
2022/05/15 10:31:52;;;;;;;16.27;6.27;;;;;;;;;;5095314;28;20482;-73
2022/05/15 10:34:25;;;;;;;18.00;6.93;;;;;;;;;;5095704;28;20496;-73
2022/05/15 10:36:58;;;;;;;21.57;7.77;;;;;;;;;;5089206;28;20548;-75
2022/05/15 10:39:32;;;;;;;21.70;6.87;;;;;;;;;;5094915;28;20453;-73
2022/05/15 10:42:03;;;;;;;23.77;7.40;;;;;;;;;;5095069;28;20455;-73
2022/05/15 10:44:39;;;;;;;20.73;7.67;;;;;;;;;;5099448;28;20449;-73
2022/05/15 10:47:13;;;;;;;19.63;7.50;;;;;;;;;;5088628;28;20449;-73
2022/05/15 10:49:50;;;;;;;18.90;8.13;;;;;;;;;;5088305;28;21003;-73
2022/05/15 10:52:23;;;;;;;29.70;7.87;;;;;;;;;;5089118;28;20445;-73
2022/05/15 10:57:44;;;;;;;23.93;7.90;;;;;;;;;;5090519;28;20462;-71
2022/05/15 11:00:20;;;;;;;24.50;8.27;;;;;;;;;;5094830;28;20456;-71
2022/05/15 11:03:05;;;;;;;21.93;8.47;;;;;;;;;;5094658;28;20823;-71
2022/05/15 11:05:38;;;;;;;19.13;7.20;;;;;;;;;;5094417;28;20448;-71
2022/05/15 11:08:18;;;;;;;23.77;7.90;;;;;;;;;;5091313;28;20493;-71
2022/05/15 11:10:49;;;;;;;19.70;7.20;;;;;;;;;;5086989;28;20456;-71
2022/05/15 11:13:21;;;;;;;20.90;8.10;;;;;;;;;;5093909;28;20442;-71
2022/05/15 11:15:54;;;;;;;21.80;8.10;;;;;;;;;;5094630;28;20445;-70
2022/05/15 11:18:43;;;;;;;19.17;7.93;;;;;;;;;;5085400;28;20874;-73
2022/05/15 11:21:16;;;;;;;20.83;7.93;;;;;;;;;;5096255;28;20842;-71
2022/05/15 11:23:45;;;;;;;22.23;8.63;;;;;;;;;;5093880;28;20452;-72
2022/05/15 11:26:16;;;;;;;23.57;8.53;;;;;;;;;;5085342;28;20453;-71
2022/05/15 11:28:45;;;;;;;19.67;8.70;;;;;;;;;;5089369;28;20511;-71
2022/05/15 11:31:14;;;;;;;19.17;8.43;;;;;;;;;;5089113;28;20958;-71
2022/05/15 11:33:52;;;;;;;21.90;8.73;;;;;;;;;;5083979;28;20447;-71
2022/05/15 11:36:36;;;;;;;19.60;8.00;;;;;;;;;;5098243;28;20451;-71
2022/05/15 11:39:22;;;;;;;20.80;8.77;;;;;;;;;;5098735;28;20516;-70
2022/05/15 11:42:14;;;;;;;19.83;7.77;;;;;;;;;;5083010;28;20440;-71
2022/05/15 11:44:44;;;;;;;19.80;8.10;;;;;;;;;;5089987;28;20536;-70
2022/05/15 11:47:39;;;;;;;20.30;8.37;;;;;;;;;;5083158;28;20455;-71
2022/05/15 11:50:10;;;;;;;18.00;7.70;;;;;;;;;;5078370;28;20486;-71
2022/05/15 11:52:41;;;;;;;19.30;8.53;;;;;;;;;;5085661;28;20430;-71
2022/05/15 11:55:34;;;;;;;24.30;8.77;;;;;;;;;;5083821;28;20445;-71
2022/05/15 11:58:10;;;;;;;19.23;6.57;;;;;;;;;;5082647;28;20459;-71
2022/05/15 12:00:42;;;;;;;15.33;5.13;;;;;;;;;;5082985;28;20446;-72
2022/05/15 12:03:29;;;;;;;16.83;5.70;;;;;;;;;;5083234;28;20978;-71
2022/05/15 12:06:06;;;;;;;17.77;6.60;;;;;;;;;;5090519;28;20840;-72
2022/05/15 12:08:37;;;;;;;18.40;6.40;;;;;;;;;;5090590;28;20490;-72
2022/05/15 12:11:15;;;;;;;17.27;7.00;;;;;;;;;;5093453;28;20457;-71
2022/05/15 12:13:43;;;;;;;16.60;6.40;;;;;;;;;;5092053;28;20462;-71
2022/05/15 12:16:15;;;;;;;16.53;5.60;;;;;;;;;;5097110;28;20453;-71
2022/05/15 12:18:43;;;;;;;18.20;6.30;;;;;;;;;;5102984;28;20980;-71
2022/05/15 12:21:11;;;;;;;16.50;5.77;;;;;;;;;;5097405;28;20972;-71
2022/05/15 12:24:27;;;;;;;17.40;6.13;;;;;;;;;;5098490;28;20450;-70
2022/05/15 12:26:38;;;;;;;19.50;5.70;;;;;;;;;;5089491;28;20454;-71
2022/05/15 12:29:08;;;;;;;15.40;5.70;;;;;;;;;;5095905;28;20888;-71
2022/05/15 12:31:39;;;;;;;16.53;5.40;;;;;;;;;;5079864;28;20437;-71
2022/05/15 12:34:08;;;;;;;14.83;5.37;;;;;;;;;;5082257;28;20448;-69
2022/05/15 12:36:38;;;;;;;18.50;6.60;;;;;;;;;;5087793;28;20521;-70
2022/05/15 12:39:07;;;;;;;19.30;5.83;;;;;;;;;;5092701;28;20451;-70
2022/05/15 12:41:37;;;;;;;24.60;6.00;;;;;;;;;;5092456;28;20445;-69
2022/05/15 12:44:06;;;;;;;17.80;6.73;;;;;;;;;;5092859;28;20452;-72
2022/05/15 12:46:35;;;;;;;18.73;7.13;;;;;;;;;;5092203;28;20450;-71
2022/05/15 12:49:02;;;;;;;17.60;6.23;;;;;;;;;;5092425;28;20482;-71
2022/05/15 12:51:31;;;;;;;18.00;6.87;;;;;;;;;;5092128;28;20453;-71
2022/05/15 12:53:59;;;;;;;17.27;6.80;;;;;;;;;;5092851;28;20499;-71
2022/05/15 12:56:29;;;;;;;18.20;7.30;;;;;;;;;;5092149;28;20456;-72
2022/05/15 12:58:58;;;;;;;27.57;7.13;;;;;;;;;;5094823;28;20523;-71
2022/05/15 13:01:27;;;;;;;17.17;6.40;;;;;;;;;;5091774;28;20456;-72
2022/05/15 13:03:57;;;;;;;20.33;7.00;;;;;;;;;;5092288;28;20514;-71
2022/05/15 13:06:29;;;;;;;15.60;6.70;;;;;;;;;;5092559;28;20526;-71
2022/05/15 13:08:59;;;;;;;17.40;7.20;;;;;;;;;;5092253;28;20489;-72
2022/05/15 13:11:31;;;;;;;20.27;7.27;;;;;;;;;;5092067;28;20968;-71
2022/05/15 13:13:59;;;;;;;16.17;5.00;;;;;;;;;;5092357;28;20981;-70
2022/05/15 13:16:28;;;;;;;18.60;6.00;;;;;;;;;;5091566;28;20461;-71
2022/05/15 13:18:55;;;;;;;15.30;4.87;;;;;;;;;;5092103;28;20458;-72
2022/05/15 13:21:26;;;;;;;15.97;5.30;;;;;;;;;;5091352;28;20474;-73
2022/05/15 13:23:54;;;;;;;18.23;5.83;;;;;;;;;;5089833;28;20434;-73
2022/05/15 13:26:25;;;;;;;20.80;6.67;;;;;;;;;;5091870;28;20453;-73
2022/05/15 13:29:01;;;;;;;19.47;6.00;;;;;;;;;;5090530;28;20493;-73
2022/05/15 13:31:31;;;;;;;20.23;7.73;;;;;;;;;;5091914;28;20434;-72
2022/05/15 13:33:59;;;;;;;17.93;7.40;;;;;;;;;;5092194;28;20451;-75
2022/05/15 13:36:26;;;;;;;18.83;7.90;;;;;;;;;;5091313;28;20458;-74
2022/05/15 13:44:29;;;;;;;18.27;6.27;;;;;;;;;;5092543;28;20422;-75
2022/05/15 13:47:01;;;;;;;18.23;7.30;;;;;;;;;;5091709;28;20440;-75
2022/05/15 13:49:38;;;;;;;16.50;6.73;;;;;;;;;;5091799;28;20483;-75
2022/05/15 13:52:20;;;;;;;17.23;7.30;;;;;;;;;;5092007;28;20440;-75
2022/05/15 13:54:47;;;;;;;18.40;6.30;;;;;;;;;;5091521;28;20450;-75
2022/05/15 13:57:15;;;;;;;20.80;7.30;;;;;;;;;;5089571;28;20827;-75
2022/05/15 13:59:59;;;;;;;20.17;8.47;;;;;;;;;;5089864;28;20703;-75
2022/05/15 14:02:27;;;;;;;23.03;8.10;;;;;;;;;;5090042;28;21089;-74
2022/05/15 14:05:10;;;;;;;17.67;6.50;;;;;;;;;;5090277;28;20612;-75
2022/05/15 14:07:39;;;;;;;18.23;6.53;;;;;;;;;;5089601;28;20935;-75
2022/05/15 14:10:17;;;;;;;20.00;6.60;;;;;;;;;;5090021;28;20846;-75
2022/05/15 14:12:46;;;;;;;18.30;5.70;;;;;;;;;;5091722;28;20441;-74
2022/05/15 14:18:09;;;;;;;19.90;6.10;;;;;;;;;;5096086;27;1593104;-75
2022/05/15 14:20:38;;;;;;;16.57;6.57;;;;;;;;;;5130231;28;20215;-75
2022/05/15 14:23:06;;;;;;;17.40;6.50;;;;;;;;;;5130077;28;20468;-75
2022/05/15 14:25:35;;;;;;;17.63;6.60;;;;;;;;;;5130112;28;20460;-75
2022/05/15 14:28:02;;;;;;;16.23;5.20;;;;;;;;;;5123700;28;20462;-75
2022/05/15 14:30:30;;;;;;;17.17;6.90;;;;;;;;;;5109613;28;20437;-75
2022/05/15 14:32:59;;;;;;;17.70;6.23;;;;;;;;;;5109398;28;20444;-75
2022/05/15 14:35:31;;;;;;;18.40;6.17;;;;;;;;;;5109131;28;20440;-75
2022/05/15 14:37:59;;;;;;;15.13;4.80;;;;;;;;;;5109609;28;20477;-75
2022/05/15 14:40:26;;;;;;;15.30;4.57;;;;;;;;;;5109288;28;20509;-75
2022/05/15 14:42:54;;;;;;;14.53;4.37;;;;;;;;;;5109609;28;20442;-75
2022/05/15 14:45:21;;;;;;;21.73;4.67;;;;;;;;;;5109057;28;20450;-75
2022/05/15 14:47:50;;;;;;;17.07;4.70;;;;;;;;;;5109197;28;20452;-75
2022/05/15 14:50:18;;;;;;;15.97;4.20;;;;;;;;;;5109132;28;20449;-75
2022/05/15 14:52:48;;;;;;;16.70;5.00;;;;;;;;;;5109090;28;20443;-75
2022/05/15 14:57:57;;;;;;;16.00;4.20;;;;;;;;;;5106716;28;20494;-75
2022/05/15 15:00:27;;;;;;;18.03;4.70;;;;;;;;;;5109032;28;20976;-75
2022/05/15 15:02:55;;;;;;;14.40;4.47;;;;;;;;;;5108916;28;20443;-75
2022/05/15 15:05:24;;;;;;;18.10;4.17;;;;;;;;;;5108633;28;20442;-75
2022/05/15 15:07:52;;;;;;;13.40;3.70;;;;;;;;;;5108805;28;20509;-75
2022/05/15 15:10:20;;;;;;;14.70;4.40;;;;;;;;;;5108883;28;20453;-75
2022/05/15 15:12:47;;;;;;;17.27;4.67;;;;;;;;;;5108669;28;20453;-75
2022/05/15 15:15:15;;;;;;;18.73;4.67;;;;;;;;;;5108351;28;20808;-75
2022/05/15 15:17:42;;;;;;;21.40;5.27;;;;;;;;;;5108685;28;20499;-75